Time,TemperatureF,DewpointF,PressureIn,WindDirection,WindDirectionDegrees,WindSpeedMPH,WindSpeedGustMPH,Humidity,HourlyPrecipIn,Conditions,Clouds,dailyrainin,SoftwareType,DateUTC
2013-10-03 00:01:00,81.0,75.0,30.08,NNE,22,7.5,11.0,82,0.00,,,0.00,Rainwise IP-100,2013-10-03 04:01:00,
2013-10-03 00:06:00,81.0,75.0,30.08,NE,45,4.7,9.0,82,0.00,,,0.00,Rainwise IP-100,2013-10-03 04:06:00,
2013-10-03 00:11:00,81.0,75.0,30.08,ENE,67,7.5,9.0,82,0.00,,,0.00,Rainwise IP-100,2013-10-03 04:11:00,
2013-10-03 00:16:00,80.9,75.0,30.07,ENE,67,4.4,8.0,82,0.00,,,0.00,Rainwise IP-100,2013-10-03 04:16:00,
2013-10-03 00:21:00,81.0,74.0,30.07,ENE,67,8.9,9.0,81,0.00,,,0.00,Rainwise IP-100,2013-10-03 04:21:00,
2013-10-03 00:26:00,81.1,74.0,30.07,ENE,67,4.9,8.0,81,0.00,,,0.00,Rainwise IP-100,2013-10-03 04:26:00,
2013-10-03 00:32:00,81.1,74.0,30.06,ENE,67,5.8,9.0,80,0.00,,,0.00,Rainwise IP-100,2013-10-03 04:32:00,
2013-10-03 00:37:00,81.2,74.0,30.07,ENE,67,2.8,7.0,80,0.00,,,0.00,Rainwise IP-100,2013-10-03 04:37:00,
2013-10-03 00:42:00,81.0,74.0,30.07,SSW,202,4.4,6.0,79,0.00,,,0.00,Rainwise IP-100,2013-10-03 04:42:00,
2013-10-03 00:47:00,80.3,73.0,30.07,SSW,202,3.7,6.0,79,0.00,,,0.00,Rainwise IP-100,2013-10-03 04:47:00,
2013-10-03 00:52:00,79.7,72.0,30.07,SSW,202,3.0,6.0,79,0.00,,,0.00,Rainwise IP-100,2013-10-03 04:52:00,
2013-10-03 00:57:00,79.4,72.0,30.06,SSW,202,4.0,5.0,80,0.00,,,0.00,Rainwise IP-100,2013-10-03 04:57:00,
2013-10-03 01:02:00,79.1,72.0,30.07,South,180,5.4,5.4,81,0.00,,,0.00,Rainwise IP-100,2013-10-03 05:02:00,
2013-10-03 01:07:00,78.7,72.0,30.06,SSW,202,2.1,9.0,82,0.00,,,0.00,Rainwise IP-100,2013-10-03 05:07:00,
2013-10-03 01:13:00,78.3,72.0,30.06,SSW,202,4.7,5.0,82,0.00,,,0.00,Rainwise IP-100,2013-10-03 05:13:00,
2013-10-03 01:18:00,78.2,72.0,30.06,South,180,2.8,5.0,83,0.00,,,0.00,Rainwise IP-100,2013-10-03 05:18:00,
2013-10-03 01:23:00,78.3,72.0,30.06,SSE,157,2.8,4.0,82,0.00,,,0.00,Rainwise IP-100,2013-10-03 05:23:00,
2013-10-03 01:28:00,78.3,72.0,30.06,South,180,4.0,4.0,82,0.00,,,0.00,Rainwise IP-100,2013-10-03 05:28:00,
2013-10-03 01:33:00,78.4,72.0,30.06,SSW,202,2.1,4.0,82,0.00,,,0.00,Rainwise IP-100,2013-10-03 05:33:00,
2013-10-03 01:38:00,78.4,72.0,30.06,SSW,202,0.0,3.0,82,0.00,,,0.00,Rainwise IP-100,2013-10-03 05:38:00,
2013-10-03 01:43:00,78.3,72.0,30.06,South,180,3.5,3.5,82,0.00,,,0.00,Rainwise IP-100,2013-10-03 05:43:00,
2013-10-03 01:49:00,78.0,72.0,30.06,SSW,202,0.0,5.0,82,0.00,,,0.00,Rainwise IP-100,2013-10-03 05:49:00,
2013-10-03 01:54:00,77.8,72.0,30.06,South,180,4.7,7.0,83,0.00,,,0.00,Rainwise IP-100,2013-10-03 05:54:00,
2013-10-03 01:59:00,77.6,73.0,30.05,WSW,247,2.6,6.0,85,0.00,,,0.00,Rainwise IP-100,2013-10-03 05:59:00,
2013-10-03 02:04:00,77.3,73.0,30.05,WSW,247,1.6,4.0,86,0.00,,,0.00,Rainwise IP-100,2013-10-03 06:04:00,
2013-10-03 02:09:00,77.1,73.0,30.05,SSW,202,2.3,3.0,87,0.00,,,0.00,Rainwise IP-100,2013-10-03 06:09:00,
2013-10-03 02:14:00,77.0,73.0,30.05,SSW,202,2.6,5.0,88,0.00,,,0.00,Rainwise IP-100,2013-10-03 06:14:00,
2013-10-03 02:19:00,77.0,73.0,30.05,SSE,157,2.3,5.0,89,0.00,,,0.00,Rainwise IP-100,2013-10-03 06:19:00,
2013-10-03 02:24:00,77.1,73.0,30.05,SE,135,2.1,8.0,89,0.00,,,0.00,Rainwise IP-100,2013-10-03 06:24:00,
2013-10-03 02:30:00,77.2,74.0,30.04,SSE,157,3.0,8.0,90,0.24,,,0.04,Rainwise IP-100,2013-10-03 06:30:00,
2013-10-03 02:35:00,77.0,74.0,30.04,SE,135,1.6,9.0,91,0.84,,,0.15,Rainwise IP-100,2013-10-03 06:35:00,
2013-10-03 02:40:00,76.7,74.0,30.04,SSE,157,3.5,6.0,91,1.74,,,0.34,Rainwise IP-100,2013-10-03 06:40:00,
2013-10-03 02:45:00,76.5,74.0,30.03,SSE,157,2.1,4.0,92,1.68,,,0.42,Rainwise IP-100,2013-10-03 06:45:00,
2013-10-03 02:50:00,76.4,74.0,30.03,SSE,157,2.6,2.6,92,0.60,,,0.44,Rainwise IP-100,2013-10-03 06:50:00,
2013-10-03 02:55:00,76.3,74.0,30.02,ESE,112,0.0,3.0,93,0.18,,,0.45,Rainwise IP-100,2013-10-03 06:55:00,
2013-10-03 03:00:00,76.4,74.0,30.02,ESE,112,3.5,3.5,93,0.12,,,0.45,Rainwise IP-100,2013-10-03 07:00:00,
2013-10-03 03:06:00,76.4,74.0,30.02,ESE,112,4.2,7.0,94,0.00,,,0.45,Rainwise IP-100,2013-10-03 07:06:00,
2013-10-03 03:11:00,76.4,74.0,30.01,ESE,112,3.0,4.0,94,0.06,,,0.46,Rainwise IP-100,2013-10-03 07:11:00,
2013-10-03 03:16:00,76.6,74.0,30.01,East,90,4.7,9.0,94,0.06,,,0.47,Rainwise IP-100,2013-10-03 07:16:00,
2013-10-03 03:21:00,76.7,74.0,30.01,ENE,67,3.0,11.0,94,0.12,,,0.48,Rainwise IP-100,2013-10-03 07:21:00,
2013-10-03 03:26:00,76.8,74.0,30.01,ENE,67,5.8,7.0,94,0.12,,,0.48,Rainwise IP-100,2013-10-03 07:26:00,
2013-10-03 03:31:00,76.8,74.0,30.01,East,90,3.7,11.0,94,0.00,,,0.48,Rainwise IP-100,2013-10-03 07:31:00,
2013-10-03 03:36:00,77.0,74.0,30.00,SE,135,3.0,5.0,93,0.00,,,0.48,Rainwise IP-100,2013-10-03 07:36:00,
2013-10-03 03:41:00,77.1,74.0,30.00,ENE,67,1.9,4.0,93,0.00,,,0.48,Rainwise IP-100,2013-10-03 07:41:00,
2013-10-03 03:47:00,77.0,74.0,29.99,ENE,67,0.0,1.0,93,0.00,,,0.48,Rainwise IP-100,2013-10-03 07:47:00,
2013-10-03 03:52:00,77.0,74.0,29.99,ESE,112,1.6,2.0,93,0.00,,,0.48,Rainwise IP-100,2013-10-03 07:52:00,
2013-10-03 03:57:00,77.0,74.0,29.99,ESE,112,0.0,6.0,93,0.00,,,0.48,Rainwise IP-100,2013-10-03 07:57:00,
2013-10-03 04:02:00,77.0,74.0,29.99,SSE,157,1.6,5.0,93,0.00,,,0.48,Rainwise IP-100,2013-10-03 08:02:00,
2013-10-03 04:07:00,77.0,74.0,29.99,ENE,67,1.6,5.0,93,0.00,,,0.48,Rainwise IP-100,2013-10-03 08:07:00,
2013-10-03 04:12:00,77.1,74.0,29.99,East,90,1.4,4.0,93,0.00,,,0.48,Rainwise IP-100,2013-10-03 08:12:00,
2013-10-03 04:17:00,77.2,75.0,29.99,ENE,67,1.4,3.0,93,0.00,,,0.48,Rainwise IP-100,2013-10-03 08:17:00,
2013-10-03 04:23:00,77.5,75.0,29.99,ENE,67,0.0,3.0,93,0.00,,,0.48,Rainwise IP-100,2013-10-03 08:23:00,
2013-10-03 04:28:00,77.8,75.0,29.99,ENE,67,1.9,5.0,93,0.00,,,0.48,Rainwise IP-100,2013-10-03 08:28:00,
2013-10-03 04:33:00,77.9,76.0,29.99,East,90,2.1,6.0,93,0.00,,,0.48,Rainwise IP-100,2013-10-03 08:33:00,
2013-10-03 04:38:00,78.1,75.0,29.99,NE,45,10.7,10.7,92,0.00,,,0.48,Rainwise IP-100,2013-10-03 08:38:00,
2013-10-03 04:43:00,78.4,76.0,29.98,ENE,67,7.5,15.0,92,0.00,,,0.48,Rainwise IP-100,2013-10-03 08:43:00,
2013-10-03 04:48:00,78.9,76.0,29.98,ENE,67,11.4,14.0,91,0.00,,,0.48,Rainwise IP-100,2013-10-03 08:48:00,
2013-10-03 04:53:00,79.3,76.0,29.98,ENE,67,7.7,14.0,89,0.00,,,0.48,Rainwise IP-100,2013-10-03 08:53:00,
2013-10-03 04:58:00,79.7,76.0,29.99,ENE,67,7.9,15.0,88,0.00,,,0.48,Rainwise IP-100,2013-10-03 08:58:00,
2013-10-03 05:04:00,79.9,76.0,29.98,NE,45,7.5,13.0,87,0.00,,,0.48,Rainwise IP-100,2013-10-03 09:04:00,
2013-10-03 05:09:00,79.9,75.0,29.98,ENE,67,6.8,18.0,86,0.00,,,0.48,Rainwise IP-100,2013-10-03 09:09:00,
2013-10-03 05:14:00,79.9,75.0,29.98,ENE,67,9.8,14.0,86,0.00,,,0.48,Rainwise IP-100,2013-10-03 09:14:00,
2013-10-03 05:19:00,80.0,75.0,29.98,NE,45,8.6,17.0,85,0.00,,,0.48,Rainwise IP-100,2013-10-03 09:19:00,
2013-10-03 05:24:00,80.2,75.0,29.99,ENE,67,8.9,17.0,85,0.00,,,0.48,Rainwise IP-100,2013-10-03 09:24:00,
2013-10-03 05:29:00,80.3,75.0,29.99,ENE,67,10.3,12.0,85,0.00,,,0.48,Rainwise IP-100,2013-10-03 09:29:00,
2013-10-03 05:34:00,80.3,75.0,29.99,ENE,67,7.7,12.0,85,0.00,,,0.48,Rainwise IP-100,2013-10-03 09:34:00,
2013-10-03 05:40:00,80.2,74.0,29.99,ENE,67,8.4,14.0,84,0.00,,,0.48,Rainwise IP-100,2013-10-03 09:40:00,
2013-10-03 05:45:00,80.3,74.0,29.99,East,90,9.6,13.0,84,0.00,,,0.48,Rainwise IP-100,2013-10-03 09:45:00,
2013-10-03 05:50:00,80.4,75.0,29.99,ENE,67,8.2,13.0,84,0.00,,,0.48,Rainwise IP-100,2013-10-03 09:50:00,
2013-10-03 05:55:00,80.4,75.0,29.99,ENE,67,3.3,14.0,84,0.00,,,0.48,Rainwise IP-100,2013-10-03 09:55:00,
2013-10-03 06:00:00,80.3,74.0,29.99,NE,45,6.3,13.0,84,0.00,,,0.48,Rainwise IP-100,2013-10-03 10:00:00,
2013-10-03 06:05:00,80.3,74.0,29.99,ENE,67,4.9,14.0,84,0.00,,,0.48,Rainwise IP-100,2013-10-03 10:05:00,
2013-10-03 06:10:00,80.4,75.0,29.99,ENE,67,6.8,13.0,84,0.00,,,0.48,Rainwise IP-100,2013-10-03 10:10:00,
2013-10-03 06:15:00,80.4,75.0,30.00,East,90,7.9,12.0,84,0.00,,,0.48,Rainwise IP-100,2013-10-03 10:15:00,
2013-10-03 06:21:00,80.4,75.0,30.00,ENE,67,12.4,16.0,84,0.00,,,0.48,Rainwise IP-100,2013-10-03 10:21:00,
2013-10-03 06:26:00,80.4,75.0,30.00,ENE,67,3.7,15.0,84,0.00,,,0.48,Rainwise IP-100,2013-10-03 10:26:00,
2013-10-03 06:31:00,80.4,74.0,30.00,East,90,13.8,13.8,83,0.00,,,0.48,Rainwise IP-100,2013-10-03 10:31:00,
2013-10-03 06:36:00,80.4,74.0,30.01,NE,45,9.1,14.0,83,0.00,,,0.48,Rainwise IP-100,2013-10-03 10:36:00,
2013-10-03 06:41:00,80.4,74.0,30.01,NE,45,7.9,12.0,83,0.00,,,0.48,Rainwise IP-100,2013-10-03 10:41:00,
2013-10-03 06:46:00,80.5,75.0,30.01,NE,45,11.0,13.0,84,0.00,,,0.48,Rainwise IP-100,2013-10-03 10:46:00,
2013-10-03 06:51:00,80.5,75.0,30.00,East,90,7.2,14.0,84,0.00,,,0.48,Rainwise IP-100,2013-10-03 10:51:00,
2013-10-03 06:57:00,80.5,75.0,30.01,ENE,67,7.2,13.0,84,0.00,,,0.48,Rainwise IP-100,2013-10-03 10:57:00,
2013-10-03 07:02:00,80.4,74.0,30.01,East,90,6.8,12.0,83,0.00,,,0.48,Rainwise IP-100,2013-10-03 11:02:00,
2013-10-03 07:07:00,80.4,74.0,30.01,ENE,67,7.2,11.0,83,0.00,,,0.48,Rainwise IP-100,2013-10-03 11:07:00,
2013-10-03 07:12:00,80.4,74.0,30.01,ENE,67,7.5,11.0,83,0.00,,,0.48,Rainwise IP-100,2013-10-03 11:12:00,
2013-10-03 07:17:00,80.4,74.0,30.01,ENE,67,7.2,11.0,83,0.00,,,0.48,Rainwise IP-100,2013-10-03 11:17:00,
2013-10-03 07:22:00,80.5,74.0,30.01,ENE,67,8.4,14.0,83,0.00,,,0.48,Rainwise IP-100,2013-10-03 11:22:00,
2013-10-03 07:27:00,80.5,74.0,30.02,East,90,5.4,14.0,83,0.00,,,0.48,Rainwise IP-100,2013-10-03 11:27:00,
2013-10-03 07:32:00,80.5,74.0,30.02,ENE,67,7.0,11.0,83,0.00,,,0.48,Rainwise IP-100,2013-10-03 11:32:00,
2013-10-03 07:38:00,80.5,74.0,30.02,ENE,67,3.7,14.0,83,0.00,,,0.48,Rainwise IP-100,2013-10-03 11:38:00,
2013-10-03 07:43:00,80.5,74.0,30.02,ENE,67,7.5,11.0,83,0.00,,,0.48,Rainwise IP-100,2013-10-03 11:43:00,
2013-10-03 07:48:00,80.6,74.0,30.02,East,90,8.4,13.0,83,0.00,,,0.48,Rainwise IP-100,2013-10-03 11:48:00,
2013-10-03 07:53:00,80.7,74.0,30.02,East,90,7.2,12.0,82,0.00,,,0.48,Rainwise IP-100,2013-10-03 11:53:00,
2013-10-03 07:58:00,80.9,75.0,30.03,NE,45,13.5,13.5,82,0.00,,,0.48,Rainwise IP-100,2013-10-03 11:58:00,
2013-10-03 08:00:00,81.0,75.0,30.03,ENE,67,7.5,13.0,82,0.00,,,0.48,Rainwise IP-100,2013-10-03 12:00:00,
2013-10-03 08:05:00,81.2,74.0,30.02,East,90,5.8,14.0,81,0.00,,,0.48,Rainwise IP-100,2013-10-03 12:05:00,
2013-10-03 08:11:00,81.5,75.0,30.03,NE,45,8.9,15.0,81,0.00,,,0.48,Rainwise IP-100,2013-10-03 12:11:00,
2013-10-03 08:16:00,81.6,74.0,30.03,East,90,6.5,14.0,80,0.00,,,0.48,Rainwise IP-100,2013-10-03 12:16:00,
2013-10-03 08:21:00,81.8,74.0,30.04,NE,45,11.2,11.2,80,0.00,,,0.48,Rainwise IP-100,2013-10-03 12:21:00,
2013-10-03 08:26:00,82.0,75.0,30.04,ENE,67,6.5,12.0,80,0.00,,,0.48,Rainwise IP-100,2013-10-03 12:26:00,
2013-10-03 08:31:00,82.0,75.0,30.04,ENE,67,8.2,11.0,80,0.00,,,0.48,Rainwise IP-100,2013-10-03 12:31:00,
2013-10-03 08:36:00,82.1,74.0,30.04,ENE,67,11.9,12.0,79,0.00,,,0.48,Rainwise IP-100,2013-10-03 12:36:00,
2013-10-03 08:41:00,82.2,75.0,30.05,ENE,67,9.3,15.0,79,0.00,,,0.48,Rainwise IP-100,2013-10-03 12:41:00,
2013-10-03 08:47:00,82.3,74.0,30.04,NE,45,8.9,15.0,78,0.00,,,0.48,Rainwise IP-100,2013-10-03 12:47:00,
2013-10-03 08:52:00,82.2,74.0,30.05,ENE,67,6.1,17.0,78,0.00,,,0.48,Rainwise IP-100,2013-10-03 12:52:00,
2013-10-03 08:57:00,82.1,74.0,30.04,ENE,67,7.9,14.0,78,0.00,,,0.48,Rainwise IP-100,2013-10-03 12:57:00,
2013-10-03 09:02:00,82.1,74.0,30.05,ENE,67,10.7,13.0,78,0.00,,,0.48,Rainwise IP-100,2013-10-03 13:02:00,
2013-10-03 09:07:00,82.1,74.0,30.05,NNE,22,5.8,12.0,79,0.00,,,0.48,Rainwise IP-100,2013-10-03 13:07:00,
2013-10-03 09:12:00,82.2,75.0,30.05,ENE,67,9.3,13.0,79,0.00,,,0.48,Rainwise IP-100,2013-10-03 13:12:00,
2013-10-03 09:17:00,82.3,74.0,30.06,NE,45,13.1,15.0,78,0.00,,,0.48,Rainwise IP-100,2013-10-03 13:17:00,
2013-10-03 09:22:00,82.6,74.0,30.06,NE,45,8.4,16.0,78,0.00,,,0.48,Rainwise IP-100,2013-10-03 13:22:00,
2013-10-03 09:28:00,82.9,75.0,30.06,ESE,112,6.8,12.0,78,0.00,,,0.48,Rainwise IP-100,2013-10-03 13:28:00,
2013-10-03 09:33:00,82.9,75.0,30.06,ENE,67,8.2,12.0,77,0.00,,,0.48,Rainwise IP-100,2013-10-03 13:33:00,
2013-10-03 09:38:00,83.1,75.0,30.06,ENE,67,10.5,12.0,77,0.00,,,0.48,Rainwise IP-100,2013-10-03 13:38:00,
2013-10-03 09:43:00,83.4,75.0,30.07,ENE,67,15.4,15.4,76,0.00,,,0.48,Rainwise IP-100,2013-10-03 13:43:00,
2013-10-03 09:48:00,83.5,74.0,30.07,ENE,67,7.0,15.0,75,0.00,,,0.48,Rainwise IP-100,2013-10-03 13:48:00,
2013-10-03 09:53:00,83.4,74.0,30.07,ENE,67,5.6,14.0,75,0.00,,,0.48,Rainwise IP-100,2013-10-03 13:53:00,
2013-10-03 09:58:00,83.5,75.0,30.07,ENE,67,8.9,12.0,76,0.00,,,0.48,Rainwise IP-100,2013-10-03 13:58:00,
2013-10-03 10:04:00,83.6,74.0,30.07,ENE,67,9.6,13.0,75,0.00,,,0.48,Rainwise IP-100,2013-10-03 14:04:00,
2013-10-03 10:09:00,83.5,74.0,30.07,ENE,67,7.5,16.0,75,0.00,,,0.48,Rainwise IP-100,2013-10-03 14:09:00,
2013-10-03 10:14:00,83.5,74.0,30.06,ENE,67,8.9,15.0,75,0.00,,,0.48,Rainwise IP-100,2013-10-03 14:14:00,
2013-10-03 10:19:00,83.6,74.0,30.07,ENE,67,4.7,15.0,75,0.00,,,0.48,Rainwise IP-100,2013-10-03 14:19:00,
2013-10-03 10:24:00,83.9,75.0,30.07,ENE,67,10.5,14.0,75,0.00,,,0.48,Rainwise IP-100,2013-10-03 14:24:00,
2013-10-03 10:29:00,83.9,75.0,30.07,ENE,67,9.3,15.0,75,0.00,,,0.48,Rainwise IP-100,2013-10-03 14:29:00,
2013-10-03 10:34:00,83.8,75.0,30.07,ENE,67,10.7,14.0,75,0.00,,,0.48,Rainwise IP-100,2013-10-03 14:34:00,
2013-10-03 10:39:00,84.0,75.0,30.08,ENE,67,11.0,13.0,75,0.00,,,0.48,Rainwise IP-100,2013-10-03 14:39:00,
2013-10-03 10:45:00,84.1,75.0,30.08,ENE,67,9.3,15.0,75,0.00,,,0.48,Rainwise IP-100,2013-10-03 14:45:00,
2013-10-03 10:50:00,83.9,75.0,30.08,ENE,67,8.6,17.0,75,0.00,,,0.48,Rainwise IP-100,2013-10-03 14:50:00,
2013-10-03 10:55:00,83.6,74.0,30.08,NE,45,11.2,16.0,75,0.00,,,0.48,Rainwise IP-100,2013-10-03 14:55:00,
2013-10-03 11:00:00,83.6,74.0,30.08,ENE,67,9.6,16.0,75,0.00,,,0.48,Rainwise IP-100,2013-10-03 15:00:00,
2013-10-03 11:05:00,83.7,75.0,30.09,East,90,6.8,15.0,76,0.00,,,0.48,Rainwise IP-100,2013-10-03 15:05:00,
2013-10-03 11:10:00,83.9,75.0,30.09,NE,45,8.4,15.0,75,0.00,,,0.48,Rainwise IP-100,2013-10-03 15:10:00,
2013-10-03 11:15:00,84.2,75.0,30.09,NE,45,12.1,14.0,75,0.00,,,0.48,Rainwise IP-100,2013-10-03 15:15:00,
2013-10-03 11:21:00,84.2,75.0,30.08,ENE,67,6.8,18.0,75,0.00,,,0.48,Rainwise IP-100,2013-10-03 15:21:00,
2013-10-03 11:26:00,83.9,75.0,30.09,ENE,67,5.8,14.0,75,0.00,,,0.48,Rainwise IP-100,2013-10-03 15:26:00,
2013-10-03 11:31:00,83.7,75.0,30.09,ENE,67,8.4,16.0,75,0.00,,,0.48,Rainwise IP-100,2013-10-03 15:31:00,
2013-10-03 11:36:00,83.5,75.0,30.09,NE,45,8.4,15.0,76,0.00,,,0.48,Rainwise IP-100,2013-10-03 15:36:00,
2013-10-03 11:41:00,83.2,74.0,30.09,NE,45,9.6,17.0,76,0.00,,,0.48,Rainwise IP-100,2013-10-03 15:41:00,
2013-10-03 11:46:00,83.0,75.0,30.09,ENE,67,6.3,13.0,77,0.00,,,0.48,Rainwise IP-100,2013-10-03 15:46:00,
2013-10-03 11:51:00,82.7,74.0,30.08,NNE,22,12.8,16.0,77,0.00,,,0.48,Rainwise IP-100,2013-10-03 15:51:00,
2013-10-03 11:54:00,82.8,74.0,30.09,NNE,22,8.9,16.0,77,0.00,,,0.48,Rainwise IP-100,2013-10-03 15:54:00,
2013-10-03 11:59:00,83.3,75.0,30.08,NE,45,7.7,12.0,77,0.00,,,0.48,Rainwise IP-100,2013-10-03 15:59:00,
2013-10-03 12:04:00,83.3,74.0,30.09,ENE,67,6.5,15.0,76,0.00,,,0.48,Rainwise IP-100,2013-10-03 16:04:00,
2013-10-03 12:09:00,83.3,74.0,30.09,NE,45,9.1,15.0,76,0.00,,,0.48,Rainwise IP-100,2013-10-03 16:09:00,
2013-10-03 12:14:00,83.1,74.0,30.09,ENE,67,7.0,14.0,76,0.00,,,0.48,Rainwise IP-100,2013-10-03 16:14:00,
2013-10-03 12:19:00,82.7,74.0,30.09,East,90,6.5,14.0,77,0.00,,,0.48,Rainwise IP-100,2013-10-03 16:19:00,
2013-10-03 12:24:00,82.2,74.0,30.09,East,90,3.5,11.0,78,0.00,,,0.48,Rainwise IP-100,2013-10-03 16:24:00,
2013-10-03 12:29:00,82.0,74.0,30.09,ESE,112,5.6,11.0,79,0.00,,,0.48,Rainwise IP-100,2013-10-03 16:29:00,
2013-10-03 12:35:00,81.8,74.0,30.09,NNE,22,2.8,10.0,80,0.00,,,0.48,Rainwise IP-100,2013-10-03 16:35:00,
2013-10-03 12:40:00,82.0,75.0,30.09,ENE,67,3.5,14.0,80,0.00,,,0.48,Rainwise IP-100,2013-10-03 16:40:00,
2013-10-03 12:45:00,82.4,75.0,30.08,SSE,157,5.4,11.0,79,0.00,,,0.48,Rainwise IP-100,2013-10-03 16:45:00,
2013-10-03 12:50:00,82.9,75.0,30.08,East,90,4.0,10.0,78,0.00,,,0.48,Rainwise IP-100,2013-10-03 16:50:00,
2013-10-03 12:55:00,83.1,75.0,30.08,ENE,67,5.8,9.0,77,0.00,,,0.48,Rainwise IP-100,2013-10-03 16:55:00,
2013-10-03 13:00:00,83.1,74.0,30.08,ENE,67,7.9,10.0,76,0.00,,,0.48,Rainwise IP-100,2013-10-03 17:00:00,
2013-10-03 13:05:00,83.0,74.0,30.07,ENE,67,8.2,13.0,76,0.00,,,0.48,Rainwise IP-100,2013-10-03 17:05:00,
2013-10-03 13:11:00,82.9,74.0,30.07,NE,45,8.9,15.0,76,0.00,,,0.48,Rainwise IP-100,2013-10-03 17:11:00,
2013-10-03 13:16:00,82.6,74.0,30.07,ENE,67,5.6,11.0,76,0.00,,,0.48,Rainwise IP-100,2013-10-03 17:16:00,
2013-10-03 13:21:00,82.4,74.0,30.06,ENE,67,7.9,14.0,77,0.00,,,0.48,Rainwise IP-100,2013-10-03 17:21:00,
2013-10-03 13:26:00,82.5,74.0,30.06,East,90,11.0,16.0,77,0.00,,,0.48,Rainwise IP-100,2013-10-03 17:26:00,
2013-10-03 13:31:00,82.6,74.0,30.06,ENE,67,10.0,14.0,77,0.00,,,0.48,Rainwise IP-100,2013-10-03 17:31:00,
2013-10-03 13:36:00,82.7,74.0,30.06,ENE,67,6.8,12.0,77,0.00,,,0.48,Rainwise IP-100,2013-10-03 17:36:00,
2013-10-03 13:41:00,82.8,74.0,30.06,ENE,67,4.9,10.0,76,0.00,,,0.48,Rainwise IP-100,2013-10-03 17:41:00,
2013-10-03 13:46:00,82.8,74.0,30.05,East,90,5.8,12.0,76,0.00,,,0.48,Rainwise IP-100,2013-10-03 17:46:00,
2013-10-03 13:52:00,82.8,74.0,30.06,ENE,67,8.6,14.0,75,0.00,,,0.48,Rainwise IP-100,2013-10-03 17:52:00,
2013-10-03 13:57:00,82.8,74.0,30.06,East,90,4.4,14.0,75,0.00,,,0.48,Rainwise IP-100,2013-10-03 17:57:00,
2013-10-03 14:02:00,83.0,74.0,30.05,East,90,11.2,12.0,75,0.00,,,0.48,Rainwise IP-100,2013-10-03 18:02:00,
2013-10-03 14:07:00,83.4,74.0,30.04,ENE,67,8.2,12.0,75,0.00,,,0.48,Rainwise IP-100,2013-10-03 18:07:00,
2013-10-03 14:12:00,83.4,74.0,30.04,ENE,67,2.6,11.0,74,0.00,,,0.48,Rainwise IP-100,2013-10-03 18:12:00,
2013-10-03 14:17:00,83.3,74.0,30.04,NE,45,7.0,10.0,74,0.00,,,0.48,Rainwise IP-100,2013-10-03 18:17:00,
2013-10-03 14:22:00,83.3,74.0,30.05,ENE,67,10.5,13.0,74,0.00,,,0.48,Rainwise IP-100,2013-10-03 18:22:00,
2013-10-03 14:28:00,83.3,74.0,30.05,ENE,67,8.9,11.0,74,0.00,,,0.48,Rainwise IP-100,2013-10-03 18:28:00,
2013-10-03 14:33:00,83.4,74.0,30.04,ENE,67,5.4,12.0,73,0.00,,,0.48,Rainwise IP-100,2013-10-03 18:33:00,
2013-10-03 14:38:00,83.4,74.0,30.05,East,90,4.7,12.0,73,0.00,,,0.48,Rainwise IP-100,2013-10-03 18:38:00,
2013-10-03 14:43:00,83.4,74.0,30.04,East,90,6.3,12.0,73,0.00,,,0.48,Rainwise IP-100,2013-10-03 18:43:00,
2013-10-03 14:48:00,83.1,73.0,30.04,ENE,67,5.4,10.0,73,0.00,,,0.48,Rainwise IP-100,2013-10-03 18:48:00,
2013-10-03 14:53:00,83.0,73.0,30.05,ENE,67,4.9,8.0,73,0.00,,,0.48,Rainwise IP-100,2013-10-03 18:53:00,
2013-10-03 14:58:00,83.0,73.0,30.04,ENE,67,6.3,10.0,73,0.00,,,0.48,Rainwise IP-100,2013-10-03 18:58:00,
2013-10-03 15:03:00,83.0,73.0,30.04,East,90,10.5,10.5,73,0.00,,,0.48,Rainwise IP-100,2013-10-03 19:03:00,
2013-10-03 15:09:00,83.0,73.0,30.04,ENE,67,4.7,9.0,73,0.00,,,0.48,Rainwise IP-100,2013-10-03 19:09:00,
2013-10-03 15:14:00,82.9,73.0,30.04,ENE,67,4.4,12.0,73,0.00,,,0.48,Rainwise IP-100,2013-10-03 19:14:00,
2013-10-03 15:19:00,82.9,73.0,30.04,ENE,67,2.6,8.0,74,0.00,,,0.48,Rainwise IP-100,2013-10-03 19:19:00,
2013-10-03 15:24:00,83.0,73.0,30.04,ENE,67,4.2,11.0,74,0.00,,,0.48,Rainwise IP-100,2013-10-03 19:24:00,
2013-10-03 15:29:00,83.2,73.0,30.04,ENE,67,4.7,10.0,73,0.00,,,0.48,Rainwise IP-100,2013-10-03 19:29:00,
2013-10-03 15:34:00,83.2,73.0,30.04,East,90,1.2,9.0,73,0.00,,,0.48,Rainwise IP-100,2013-10-03 19:34:00,
2013-10-03 15:39:00,83.2,73.0,30.04,ENE,67,6.5,8.0,73,0.00,,,0.48,Rainwise IP-100,2013-10-03 19:39:00,
2013-10-03 15:45:00,83.1,73.0,30.04,SE,135,4.9,8.0,73,0.00,,,0.48,Rainwise IP-100,2013-10-03 19:45:00,
2013-10-03 15:50:00,82.9,73.0,30.04,ENE,67,6.1,10.0,73,0.00,,,0.48,Rainwise IP-100,2013-10-03 19:50:00,
2013-10-03 15:55:00,82.9,73.0,30.03,ENE,67,7.0,10.0,73,0.00,,,0.48,Rainwise IP-100,2013-10-03 19:55:00,
2013-10-03 16:00:00,83.0,73.0,30.02,ENE,67,9.6,10.0,73,0.00,,,0.48,Rainwise IP-100,2013-10-03 20:00:00,
2013-10-03 16:05:00,83.1,73.0,30.03,East,90,4.4,10.0,73,0.00,,,0.48,Rainwise IP-100,2013-10-03 20:05:00,
2013-10-03 16:10:00,83.0,73.0,30.03,ENE,67,6.8,10.0,73,0.00,,,0.48,Rainwise IP-100,2013-10-03 20:10:00,
2013-10-03 16:15:00,82.8,73.0,30.03,ENE,67,5.1,9.0,73,0.00,,,0.48,Rainwise IP-100,2013-10-03 20:15:00,
2013-10-03 16:20:00,82.7,72.0,30.03,East,90,7.2,9.0,72,0.00,,,0.48,Rainwise IP-100,2013-10-03 20:20:00,
2013-10-03 16:26:00,82.7,73.0,30.02,ENE,67,5.6,9.0,73,0.00,,,0.48,Rainwise IP-100,2013-10-03 20:26:00,
2013-10-03 16:31:00,82.6,73.0,30.02,ENE,67,3.5,10.0,73,0.00,,,0.48,Rainwise IP-100,2013-10-03 20:31:00,
2013-10-03 16:36:00,82.6,73.0,30.02,NNE,22,0.0,7.0,73,0.00,,,0.48,Rainwise IP-100,2013-10-03 20:36:00,
2013-10-03 16:41:00,82.6,73.0,30.03,ENE,67,6.8,7.0,73,0.00,,,0.48,Rainwise IP-100,2013-10-03 20:41:00,
2013-10-03 16:46:00,82.5,73.0,30.02,ENE,67,4.2,8.0,73,0.00,,,0.48,Rainwise IP-100,2013-10-03 20:46:00,
2013-10-03 16:51:00,82.5,73.0,30.03,SE,135,4.9,7.0,73,0.00,,,0.48,Rainwise IP-100,2013-10-03 20:51:00,
2013-10-03 16:56:00,82.6,73.0,30.03,South,180,2.8,7.0,73,0.00,,,0.48,Rainwise IP-100,2013-10-03 20:56:00,
2013-10-03 17:02:00,82.5,72.0,30.03,ENE,67,3.0,5.0,72,0.00,,,0.48,Rainwise IP-100,2013-10-03 21:02:00,
2013-10-03 17:07:00,82.5,72.0,30.03,East,90,4.4,8.0,72,0.00,,,0.48,Rainwise IP-100,2013-10-03 21:07:00,
2013-10-03 17:12:00,82.4,72.0,30.03,ENE,67,5.1,9.0,72,0.00,,,0.48,Rainwise IP-100,2013-10-03 21:12:00,
2013-10-03 17:17:00,82.4,72.0,30.02,NNE,22,4.7,9.0,72,0.00,,,0.48,Rainwise IP-100,2013-10-03 21:17:00,
2013-10-03 17:22:00,82.4,72.0,30.03,ENE,67,4.4,10.0,72,0.00,,,0.48,Rainwise IP-100,2013-10-03 21:22:00,
2013-10-03 17:27:00,82.4,72.0,30.03,East,90,3.5,9.0,72,0.00,,,0.48,Rainwise IP-100,2013-10-03 21:27:00,
2013-10-03 17:32:00,82.4,72.0,30.03,ENE,67,3.0,8.0,72,0.00,,,0.48,Rainwise IP-100,2013-10-03 21:32:00,
2013-10-03 17:37:00,82.4,72.0,30.03,ESE,112,2.1,6.0,72,0.00,,,0.48,Rainwise IP-100,2013-10-03 21:37:00,
2013-10-03 17:43:00,82.5,72.0,30.03,ESE,112,3.5,8.0,72,0.00,,,0.48,Rainwise IP-100,2013-10-03 21:43:00,
2013-10-03 17:48:00,82.5,72.0,30.03,ESE,112,2.1,9.0,72,0.00,,,0.48,Rainwise IP-100,2013-10-03 21:48:00,
2013-10-03 17:53:00,82.4,72.0,30.03,ENE,67,2.3,7.0,72,0.00,,,0.48,Rainwise IP-100,2013-10-03 21:53:00,
2013-10-03 17:58:00,82.3,72.0,30.03,ENE,67,3.0,7.0,72,0.00,,,0.48,Rainwise IP-100,2013-10-03 21:58:00,
2013-10-03 18:03:00,82.3,72.0,30.03,ESE,112,1.9,7.0,72,0.00,,,0.48,Rainwise IP-100,2013-10-03 22:03:00,
2013-10-03 18:08:00,82.2,72.0,30.03,ENE,67,3.7,5.0,72,0.00,,,0.48,Rainwise IP-100,2013-10-03 22:08:00,
2013-10-03 18:13:00,82.2,72.0,30.03,ENE,67,3.5,7.0,73,0.00,,,0.48,Rainwise IP-100,2013-10-03 22:13:00,
2013-10-03 18:19:00,82.1,72.0,30.03,ENE,67,2.3,8.0,74,0.00,,,0.48,Rainwise IP-100,2013-10-03 22:19:00,
2013-10-03 18:24:00,82.0,72.0,30.03,NE,45,6.5,7.0,74,0.00,,,0.48,Rainwise IP-100,2013-10-03 22:24:00,
2013-10-03 18:29:00,81.9,72.0,30.02,NE,45,5.8,9.0,73,0.00,,,0.48,Rainwise IP-100,2013-10-03 22:29:00,
2013-10-03 18:34:00,81.9,72.0,30.03,ENE,67,2.3,7.0,73,0.00,,,0.48,Rainwise IP-100,2013-10-03 22:34:00,
2013-10-03 18:39:00,81.9,72.0,30.03,East,90,4.2,5.0,73,0.00,,,0.48,Rainwise IP-100,2013-10-03 22:39:00,
2013-10-03 18:44:00,81.8,72.0,30.03,ENE,67,4.4,6.0,73,0.00,,,0.48,Rainwise IP-100,2013-10-03 22:44:00,
2013-10-03 18:49:00,81.7,72.0,30.03,ENE,67,2.1,7.0,73,0.00,,,0.48,Rainwise IP-100,2013-10-03 22:49:00,
2013-10-03 18:54:00,81.7,72.0,30.03,East,90,2.1,5.0,73,0.00,,,0.48,Rainwise IP-100,2013-10-03 22:54:00,
2013-10-03 19:00:00,81.6,72.0,30.03,East,90,2.3,5.0,73,0.00,,,0.48,Rainwise IP-100,2013-10-03 23:00:00,
2013-10-03 19:05:00,81.5,72.0,30.03,ENE,67,4.4,5.0,74,0.00,,,0.48,Rainwise IP-100,2013-10-03 23:05:00,
2013-10-03 19:10:00,81.5,72.0,30.04,East,90,4.0,6.0,74,0.00,,,0.48,Rainwise IP-100,2013-10-03 23:10:00,
2013-10-03 19:15:00,81.5,72.0,30.04,ENE,67,4.2,6.0,74,0.00,,,0.48,Rainwise IP-100,2013-10-03 23:15:00,
2013-10-03 19:20:00,81.4,72.0,30.04,ESE,112,0.0,5.0,74,0.00,,,0.48,Rainwise IP-100,2013-10-03 23:20:00,
2013-10-03 19:25:00,81.4,72.0,30.03,ENE,67,3.3,5.0,74,0.00,,,0.48,Rainwise IP-100,2013-10-03 23:25:00,
2013-10-03 19:30:00,81.4,72.0,30.04,ENE,67,4.0,5.0,74,0.00,,,0.48,Rainwise IP-100,2013-10-03 23:30:00,
2013-10-03 19:36:00,81.4,72.0,30.03,ENE,67,1.6,5.0,73,0.00,,,0.48,Rainwise IP-100,2013-10-03 23:36:00,
2013-10-03 19:41:00,81.4,72.0,30.04,ENE,67,2.1,5.0,74,0.00,,,0.48,Rainwise IP-100,2013-10-03 23:41:00,
2013-10-03 19:46:00,81.4,72.0,30.04,East,90,3.5,8.0,74,0.00,,,0.48,Rainwise IP-100,2013-10-03 23:46:00,
2013-10-03 19:51:00,81.4,72.0,30.04,ENE,67,5.6,5.6,74,0.00,,,0.48,Rainwise IP-100,2013-10-03 23:51:00,
2013-10-03 19:56:00,81.3,72.0,30.04,ENE,67,4.2,7.0,73,0.00,,,0.48,Rainwise IP-100,2013-10-03 23:56:00,
2013-10-03 20:01:00,81.3,72.0,30.04,NE,45,5.1,7.0,73,0.00,,,0.48,Rainwise IP-100,2013-10-04 00:01:00,
2013-10-03 20:06:00,81.3,72.0,30.04,ENE,67,3.7,7.0,74,0.00,,,0.48,Rainwise IP-100,2013-10-04 00:06:00,
2013-10-03 20:11:00,81.3,72.0,30.04,ENE,67,3.0,7.0,74,0.00,,,0.48,Rainwise IP-100,2013-10-04 00:11:00,
2013-10-03 20:17:00,81.4,72.0,30.05,ENE,67,2.3,6.0,74,0.00,,,0.48,Rainwise IP-100,2013-10-04 00:17:00,
2013-10-03 20:22:00,81.3,72.0,30.05,ENE,67,1.9,5.0,74,0.00,,,0.48,Rainwise IP-100,2013-10-04 00:22:00,
2013-10-03 20:27:00,81.3,72.0,30.05,ENE,67,3.7,6.0,74,0.00,,,0.48,Rainwise IP-100,2013-10-04 00:27:00,
2013-10-03 20:32:00,81.3,72.0,30.05,ENE,67,2.8,7.0,73,0.00,,,0.48,Rainwise IP-100,2013-10-04 00:32:00,
2013-10-03 20:37:00,81.4,72.0,30.05,ENE,67,3.3,6.0,73,0.00,,,0.48,Rainwise IP-100,2013-10-04 00:37:00,
2013-10-03 20:42:00,81.3,72.0,30.06,East,90,1.9,5.0,74,0.00,,,0.48,Rainwise IP-100,2013-10-04 00:42:00,
2013-10-03 20:47:00,81.3,72.0,30.06,East,90,1.9,7.0,74,0.00,,,0.48,Rainwise IP-100,2013-10-04 00:47:00,
2013-10-03 20:53:00,81.3,72.0,30.06,East,90,3.7,5.0,75,0.00,,,0.48,Rainwise IP-100,2013-10-04 00:53:00,
2013-10-03 20:58:00,81.3,72.0,30.06,ENE,67,4.4,6.0,75,0.00,,,0.48,Rainwise IP-100,2013-10-04 00:58:00,
2013-10-03 21:03:00,81.2,72.0,30.06,ENE,67,1.9,7.0,75,0.00,,,0.48,Rainwise IP-100,2013-10-04 01:03:00,
2013-10-03 21:08:00,81.2,72.0,30.06,ENE,67,6.8,7.0,75,0.00,,,0.48,Rainwise IP-100,2013-10-04 01:08:00,
2013-10-03 21:13:00,81.2,72.0,30.07,NE,45,5.1,7.0,75,0.00,,,0.48,Rainwise IP-100,2013-10-04 01:13:00,
2013-10-03 21:18:00,81.2,72.0,30.06,ENE,67,3.0,5.0,75,0.00,,,0.48,Rainwise IP-100,2013-10-04 01:18:00,
2013-10-03 21:23:00,81.2,72.0,30.06,ENE,67,2.8,8.0,75,0.00,,,0.48,Rainwise IP-100,2013-10-04 01:23:00,
2013-10-03 21:28:00,81.2,72.0,30.07,ENE,67,5.8,5.8,75,0.00,,,0.48,Rainwise IP-100,2013-10-04 01:28:00,
2013-10-03 21:34:00,81.2,73.0,30.07,ENE,67,1.6,6.0,76,0.00,,,0.48,Rainwise IP-100,2013-10-04 01:34:00,
2013-10-03 21:39:00,81.1,72.0,30.07,East,90,2.3,5.0,76,0.00,,,0.48,Rainwise IP-100,2013-10-04 01:39:00,
2013-10-03 21:44:00,81.1,72.0,30.07,ENE,67,3.5,5.0,76,0.00,,,0.48,Rainwise IP-100,2013-10-04 01:44:00,
2013-10-03 21:49:00,81.1,72.0,30.08,East,90,5.4,5.4,76,0.00,,,0.48,Rainwise IP-100,2013-10-04 01:49:00,
2013-10-03 21:53:00,81.2,73.0,30.07,ENE,67,2.6,8.0,76,0.00,,,0.48,Rainwise IP-100,2013-10-04 01:53:00,
2013-10-03 21:59:00,81.2,73.0,30.08,ENE,67,3.7,5.0,76,0.00,,,0.48,Rainwise IP-100,2013-10-04 01:59:00,
2013-10-03 22:04:00,81.1,72.0,30.08,ENE,67,4.7,6.0,76,0.00,,,0.48,Rainwise IP-100,2013-10-04 02:04:00,
2013-10-03 22:09:00,81.1,72.0,30.07,ENE,67,7.0,10.0,76,0.00,,,0.48,Rainwise IP-100,2013-10-04 02:09:00,
2013-10-03 22:14:00,81.2,73.0,30.08,ENE,67,3.5,8.0,76,0.00,,,0.48,Rainwise IP-100,2013-10-04 02:14:00,
2013-10-03 22:19:00,81.2,72.0,30.08,East,90,2.8,8.0,75,0.00,,,0.48,Rainwise IP-100,2013-10-04 02:19:00,
2013-10-03 22:24:00,81.3,72.0,30.08,ENE,67,8.9,8.9,75,0.00,,,0.48,Rainwise IP-100,2013-10-04 02:24:00,
2013-10-03 22:29:00,81.3,72.0,30.08,ENE,67,3.3,8.0,75,0.00,,,0.48,Rainwise IP-100,2013-10-04 02:29:00,
2013-10-03 22:34:00,81.3,72.0,30.08,ENE,67,5.1,9.0,75,0.00,,,0.48,Rainwise IP-100,2013-10-04 02:34:00,
2013-10-03 22:40:00,81.2,73.0,30.09,ENE,67,3.7,9.0,76,0.00,,,0.48,Rainwise IP-100,2013-10-04 02:40:00,
2013-10-03 22:45:00,81.2,73.0,30.09,ENE,67,3.3,8.0,76,0.00,,,0.48,Rainwise IP-100,2013-10-04 02:45:00,
2013-10-03 22:50:00,81.2,73.0,30.08,NE,45,7.0,8.0,76,0.00,,,0.48,Rainwise IP-100,2013-10-04 02:50:00,
2013-10-03 22:55:00,81.1,72.0,30.08,East,90,5.6,10.0,76,0.00,,,0.48,Rainwise IP-100,2013-10-04 02:55:00,
2013-10-03 23:00:00,81.1,72.0,30.08,NE,45,10.3,10.3,76,0.00,,,0.48,Rainwise IP-100,2013-10-04 03:00:00,
2013-10-03 23:05:00,81.2,73.0,30.07,ENE,67,5.8,10.0,76,0.00,,,0.48,Rainwise IP-100,2013-10-04 03:05:00,
2013-10-03 23:10:00,81.2,73.0,30.08,ESE,112,4.7,10.0,76,0.00,,,0.48,Rainwise IP-100,2013-10-04 03:10:00,
2013-10-03 23:16:00,81.2,73.0,30.08,ENE,67,5.1,8.0,76,0.00,,,0.48,Rainwise IP-100,2013-10-04 03:16:00,
2013-10-03 23:21:00,81.1,72.0,30.08,East,90,3.5,8.0,76,0.00,,,0.48,Rainwise IP-100,2013-10-04 03:21:00,
2013-10-03 23:26:00,81.2,72.0,30.08,ENE,67,4.7,9.0,75,0.00,,,0.48,Rainwise IP-100,2013-10-04 03:26:00,
2013-10-03 23:31:00,81.2,72.0,30.07,East,90,3.5,9.0,75,0.00,,,0.48,Rainwise IP-100,2013-10-04 03:31:00,
2013-10-03 23:36:00,81.1,72.0,30.07,ENE,67,3.7,8.0,76,0.00,,,0.48,Rainwise IP-100,2013-10-04 03:36:00,
2013-10-03 23:41:00,81.1,72.0,30.08,ENE,67,8.2,8.2,76,0.00,,,0.48,Rainwise IP-100,2013-10-04 03:41:00,
2013-10-03 23:46:00,81.1,72.0,30.07,ENE,67,6.1,9.0,76,0.00,,,0.48,Rainwise IP-100,2013-10-04 03:46:00,
2013-10-03 23:51:00,81.0,72.0,30.07,East,90,8.2,10.0,76,0.00,,,0.48,Rainwise IP-100,2013-10-04 03:51:00,
2013-10-03 23:57:00,81.0,72.0,30.08,ENE,67,4.4,8.0,76,0.00,,,0.48,Rainwise IP-100,2013-10-04 03:57:00,